Terminal Aerodrome Forecast
Issued by NWS

Home | Current Version | Previous Version | Text Only | Print | Product List | Glossary On
Versions: 1 2 3 4 5 6 7 8 9 10 11 12 13 14 15 16 17 18 19 20 21 22 23 24 25 26 27 28 29 30 31 32 33 34 35 36
000
FTUS44 KLZK 190540
TAFBPK
TAF
KBPK 190540Z 1906/2006 34008KT P6SM OVC050
     FM191500 33015G25KT P6SM BKN050
     FM192100 32012G24KT P6SM SCT050
     FM200100 31008KT P6SM SKC=

USA.gov is the U.S. government's official web portal to all federal, state and local government web resources and services.